sensor_id;sensor_type;location;lat;lon;timestamp;P1;durP1;ratioP1;P2;durP2;ratioP2
12151;SDS011;6139;51.274;7.128;2023-11-19T00:00:10;3.47;;;3.00;;
12151;SDS011;6139;51.274;7.128;2023-11-19T00:01:13;3.30;;;3.00;;
12151;SDS011;6139;51.274;7.128;2023-11-19T00:02:14;3.80;;;3.13;;
12151;SDS011;6139;51.274;7.128;2023-11-19T00:03:16;3.58;;;3.10;;
12151;SDS011;6139;51.274;7.128;2023-11-19T00:04:18;3.38;;;3.13;;
12151;SDS011;6139;51.274;7.128;2023-11-19T00:05:22;4.65;;;4.03;;
12151;SDS011;6139;51.274;7.128;2023-11-19T00:06:23;3.95;;;3.60;;
12151;SDS011;6139;51.274;7.128;2023-11-19T00:07:25;3.95;;;3.65;;
12151;SDS011;6139;51.274;7.128;2023-11-19T00:08:27;3.88;;;3.40;;
12151;SDS011;6139;51.274;7.128;2023-11-19T00:09:28;3.78;;;3.50;;
12151;SDS011;6139;51.274;7.128;2023-11-19T00:10:30;4.18;;;3.80;;
12151;SDS011;6139;51.274;7.128;2023-11-19T00:11:33;4.00;;;3.70;;
12151;SDS011;6139;51.274;7.128;2023-11-19T00:12:36;4.32;;;3.75;;
12151;SDS011;6139;51.274;7.128;2023-11-19T00:13:37;4.43;;;4.03;;
12151;SDS011;6139;51.274;7.128;2023-11-19T00:14:39;4.40;;;4.00;;
12151;SDS011;6139;51.274;7.128;2023-11-19T00:15:41;4.65;;;4.25;;
12151;SDS011;6139;51.274;7.128;2023-11-19T00:16:43;4.75;;;4.20;;
12151;SDS011;6139;51.274;7.128;2023-11-19T00:17:45;4.20;;;3.80;;
12151;SDS011;6139;51.274;7.128;2023-11-19T00:18:47;5.55;;;4.40;;
12151;SDS011;6139;51.274;7.128;2023-11-19T00:19:50;4.35;;;3.95;;
12151;SDS011;6139;51.274;7.128;2023-11-19T00:20:51;4.40;;;4.03;;
12151;SDS011;6139;51.274;7.128;2023-11-19T00:21:53;4.82;;;4.43;;
12151;SDS011;6139;51.274;7.128;2023-11-19T00:22:54;4.78;;;3.78;;
12151;SDS011;6139;51.274;7.128;2023-11-19T00:23:56;4.25;;;3.85;;
12151;SDS011;6139;51.274;7.128;2023-11-19T00:24:58;4.22;;;3.90;;
12151;SDS011;6139;51.274;7.128;2023-11-19T00:25:59;4.38;;;3.97;;
12151;SDS011;6139;51.274;7.128;2023-11-19T00:27:03;6.18;;;3.90;;
12151;SDS011;6139;51.274;7.128;2023-11-19T00:28:04;4.95;;;4.22;;
12151;SDS011;6139;51.274;7.128;2023-11-19T00:29:06;4.30;;;3.90;;
12151;SDS011;6139;51.274;7.128;2023-11-19T00:30:07;4.10;;;3.80;;
12151;SDS011;6139;51.274;7.128;2023-11-19T00:31:08;5.22;;;4.38;;
12151;SDS011;6139;51.274;7.128;2023-11-19T00:32:10;4.22;;;3.88;;
12151;SDS011;6139;51.274;7.128;2023-11-19T00:33:12;4.28;;;3.88;;
12151;SDS011;6139;51.274;7.128;2023-11-19T00:34:14;4.65;;;4.25;;
12151;SDS011;6139;51.274;7.128;2023-11-19T00:35:15;5.05;;;4.55;;
12151;SDS011;6139;51.274;7.128;2023-11-19T00:36:16;4.93;;;4.53;;
12151;SDS011;6139;51.274;7.128;2023-11-19T00:37:17;4.53;;;4.22;;
12151;SDS011;6139;51.274;7.128;2023-11-19T00:38:19;5.05;;;4.57;;
12151;SDS011;6139;51.274;7.128;2023-11-19T00:39:21;4.97;;;4.50;;
12151;SDS011;6139;51.274;7.128;2023-11-19T00:40:23;7.50;;;4.70;;
12151;SDS011;6139;51.274;7.128;2023-11-19T00:41:24;5.15;;;4.68;;
12151;SDS011;6139;51.274;7.128;2023-11-19T00:42:28;5.10;;;4.28;;
12151;SDS011;6139;51.274;7.128;2023-11-19T00:43:29;5.18;;;4.70;;
12151;SDS011;6139;51.274;7.128;2023-11-19T00:44:31;4.85;;;4.35;;
12151;SDS011;6139;51.274;7.128;2023-11-19T00:45:32;4.93;;;4.50;;
12151;SDS011;6139;51.274;7.128;2023-11-19T00:46:34;4.55;;;4.15;;
12151;SDS011;6139;51.274;7.128;2023-11-19T00:47:35;5.78;;;4.53;;
12151;SDS011;6139;51.274;7.128;2023-11-19T00:48:36;4.63;;;4.22;;
12151;SDS011;6139;51.274;7.128;2023-11-19T00:49:38;4.97;;;4.47;;
12151;SDS011;6139;51.274;7.128;2023-11-19T00:50:39;4.85;;;4.45;;
12151;SDS011;6139;51.274;7.128;2023-11-19T00:51:44;5.55;;;4.30;;
12151;SDS011;6139;51.274;7.128;2023-11-19T00:52:45;4.80;;;4.30;;
12151;SDS011;6139;51.274;7.128;2023-11-19T00:53:47;4.97;;;4.55;;
12151;SDS011;6139;51.274;7.128;2023-11-19T00:54:49;4.70;;;4.30;;
12151;SDS011;6139;51.274;7.128;2023-11-19T00:55:50;5.05;;;4.63;;
12151;SDS011;6139;51.274;7.128;2023-11-19T00:56:52;7.25;;;4.78;;
12151;SDS011;6139;51.274;7.128;2023-11-19T00:57:54;5.28;;;4.72;;
12151;SDS011;6139;51.274;7.128;2023-11-19T00:58:56;5.20;;;4.45;;
12151;SDS011;6139;51.274;7.128;2023-11-19T01:00:00;5.15;;;4.65;;
12151;SDS011;6139;51.274;7.128;2023-11-19T01:01:01;5.22;;;4.50;;
12151;SDS011;6139;51.274;7.128;2023-11-19T01:02:03;5.30;;;4.75;;
12151;SDS011;6139;51.274;7.128;2023-11-19T01:03:06;6.03;;;4.60;;
12151;SDS011;6139;51.274;7.128;2023-11-19T01:04:08;6.55;;;4.90;;
12151;SDS011;6139;51.274;7.128;2023-11-19T01:05:09;5.38;;;4.55;;
12151;SDS011;6139;51.274;7.128;2023-11-19T01:06:14;5.05;;;4.55;;
12151;SDS011;6139;51.274;7.128;2023-11-19T01:07:26;5.88;;;5.03;;
12151;SDS011;6139;51.274;7.128;2023-11-19T01:08:28;5.28;;;4.20;;
12151;SDS011;6139;51.274;7.128;2023-11-19T01:09:30;5.85;;;4.60;;
12151;SDS011;6139;51.274;7.128;2023-11-19T01:10:32;5.65;;;4.93;;
12151;SDS011;6139;51.274;7.128;2023-11-19T01:11:34;7.35;;;4.85;;
12151;SDS011;6139;51.274;7.128;2023-11-19T01:12:35;4.85;;;3.97;;
12151;SDS011;6139;51.274;7.128;2023-11-19T01:13:40;7.05;;;4.53;;
12151;SDS011;6139;51.274;7.128;2023-11-19T01:14:41;4.60;;;4.10;;
12151;SDS011;6139;51.274;7.128;2023-11-19T01:15:43;6.22;;;4.38;;
12151;SDS011;6139;51.274;7.128;2023-11-19T01:16:44;4.50;;;4.10;;
12151;SDS011;6139;51.274;7.128;2023-11-19T01:17:46;4.80;;;4.25;;
12151;SDS011;6139;51.274;7.128;2023-11-19T01:18:47;5.40;;;4.10;;
12151;SDS011;6139;51.274;7.128;2023-11-19T01:19:49;5.38;;;4.07;;
12151;SDS011;6139;51.274;7.128;2023-11-19T01:20:51;4.35;;;3.95;;
12151;SDS011;6139;51.274;7.128;2023-11-19T01:21:52;4.05;;;3.65;;
12151;SDS011;6139;51.274;7.128;2023-11-19T01:22:54;4.45;;;4.05;;
12151;SDS011;6139;51.274;7.128;2023-11-19T01:23:56;4.57;;;4.00;;
12151;SDS011;6139;51.274;7.128;2023-11-19T01:24:59;4.63;;;4.18;;
12151;SDS011;6139;51.274;7.128;2023-11-19T01:26:00;5.45;;;4.20;;
12151;SDS011;6139;51.274;7.128;2023-11-19T01:27:03;4.53;;;4.13;;
12151;SDS011;6139;51.274;7.128;2023-11-19T01:28:04;4.70;;;4.30;;
12151;SDS011;6139;51.274;7.128;2023-11-19T01:29:08;4.78;;;4.35;;
12151;SDS011;6139;51.274;7.128;2023-11-19T01:30:09;4.88;;;4.43;;
12151;SDS011;6139;51.274;7.128;2023-11-19T01:31:14;4.70;;;4.28;;
12151;SDS011;6139;51.274;7.128;2023-11-19T01:32:15;5.65;;;4.60;;
12151;SDS011;6139;51.274;7.128;2023-11-19T01:33:17;4.88;;;4.38;;
12151;SDS011;6139;51.274;7.128;2023-11-19T01:34:18;5.20;;;4.43;;
12151;SDS011;6139;51.274;7.128;2023-11-19T01:35:20;5.15;;;4.68;;
12151;SDS011;6139;51.274;7.128;2023-11-19T01:36:23;5.25;;;4.85;;
12151;SDS011;6139;51.274;7.128;2023-11-19T01:37:25;5.13;;;4.50;;
12151;SDS011;6139;51.274;7.128;2023-11-19T01:38:25;5.65;;;4.47;;
12151;SDS011;6139;51.274;7.128;2023-11-19T01:39:28;5.35;;;4.43;;
12151;SDS011;6139;51.274;7.128;2023-11-19T01:40:29;5.32;;;4.30;;
12151;SDS011;6139;51.274;7.128;2023-11-19T01:41:33;4.65;;;4.25;;
12151;SDS011;6139;51.274;7.128;2023-11-19T01:42:36;4.65;;;4.28;;
12151;SDS011;6139;51.274;7.128;2023-11-19T01:43:38;6.15;;;4.50;;
12151;SDS011;6139;51.274;7.128;2023-11-19T01:44:53;5.28;;;4.78;;
12151;SDS011;6139;51.274;7.128;2023-11-19T01:45:57;4.90;;;4.50;;
12151;SDS011;6139;51.274;7.128;2023-11-19T01:46:58;5.00;;;4.45;;
12151;SDS011;6139;51.274;7.128;2023-11-19T01:48:02;4.85;;;4.20;;
12151;SDS011;6139;51.274;7.128;2023-11-19T01:49:04;6.28;;;4.25;;
12151;SDS011;6139;51.274;7.128;2023-11-19T01:50:07;4.88;;;4.05;;
12151;SDS011;6139;51.274;7.128;2023-11-19T01:51:08;5.15;;;4.03;;
12151;SDS011;6139;51.274;7.128;2023-11-19T01:52:11;4.95;;;4.18;;
12151;SDS011;6139;51.274;7.128;2023-11-19T01:53:12;4.63;;;4.22;;
12151;SDS011;6139;51.274;7.128;2023-11-19T01:54:14;4.45;;;4.05;;
12151;SDS011;6139;51.274;7.128;2023-11-19T01:55:15;4.70;;;4.30;;
12151;SDS011;6139;51.274;7.128;2023-11-19T01:56:18;4.03;;;3.72;;
12151;SDS011;6139;51.274;7.128;2023-11-19T01:57:21;4.35;;;4.03;;
12151;SDS011;6139;51.274;7.128;2023-11-19T01:58:24;5.63;;;3.90;;
12151;SDS011;6139;51.274;7.128;2023-11-19T01:59:25;5.40;;;3.67;;
12151;SDS011;6139;51.274;7.128;2023-11-19T02:00:29;3.97;;;3.65;;
12151;SDS011;6139;51.274;7.128;2023-11-19T02:01:33;3.80;;;3.40;;
12151;SDS011;6139;51.274;7.128;2023-11-19T02:02:39;3.83;;;3.53;;
12151;SDS011;6139;51.274;7.128;2023-11-19T02:03:41;6.43;;;3.42;;
12151;SDS011;6139;51.274;7.128;2023-11-19T02:04:42;4.78;;;3.20;;
12151;SDS011;6139;51.274;7.128;2023-11-19T02:05:45;3.30;;;2.90;;
12151;SDS011;6139;51.274;7.128;2023-11-19T02:06:49;3.22;;;2.90;;
12151;SDS011;6139;51.274;7.128;2023-11-19T02:07:55;4.47;;;2.80;;
12151;SDS011;6139;51.274;7.128;2023-11-19T02:08:56;3.83;;;2.97;;
12151;SDS011;6139;51.274;7.128;2023-11-19T02:09:58;4.07;;;2.80;;
12151;SDS011;6139;51.274;7.128;2023-11-19T02:11:00;2.72;;;2.50;;
12151;SDS011;6139;51.274;7.128;2023-11-19T02:12:04;4.70;;;2.80;;
12151;SDS011;6139;51.274;7.128;2023-11-19T02:13:06;4.07;;;2.50;;
12151;SDS011;6139;51.274;7.128;2023-11-19T02:14:08;6.53;;;2.45;;
12151;SDS011;6139;51.274;7.128;2023-11-19T02:15:09;5.28;;;2.67;;
12151;SDS011;6139;51.274;7.128;2023-11-19T02:16:13;2.95;;;2.33;;
12151;SDS011;6139;51.274;7.128;2023-11-19T02:18:32;6.18;;;2.40;;
12151;SDS011;6139;51.274;7.128;2023-11-19T02:19:33;6.65;;;2.72;;
12151;SDS011;6139;51.274;7.128;2023-11-19T02:20:35;2.90;;;2.65;;
12151;SDS011;6139;51.274;7.128;2023-11-19T02:21:36;4.53;;;2.63;;
12151;SDS011;6139;51.274;7.128;2023-11-19T02:22:38;3.97;;;2.58;;
12151;SDS011;6139;51.274;7.128;2023-11-19T02:23:40;3.97;;;2.53;;
12151;SDS011;6139;51.274;7.128;2023-11-19T02:24:42;3.42;;;2.53;;
12151;SDS011;6139;51.274;7.128;2023-11-19T02:25:46;5.18;;;2.90;;
12151;SDS011;6139;51.274;7.128;2023-11-19T02:26:54;4.38;;;2.58;;
12151;SDS011;6139;51.274;7.128;2023-11-19T02:28:02;5.75;;;2.90;;
12151;SDS011;6139;51.274;7.128;2023-11-19T02:29:05;5.32;;;3.28;;
12151;SDS011;6139;51.274;7.128;2023-11-19T02:30:08;5.47;;;3.03;;
12151;SDS011;6139;51.274;7.128;2023-11-19T02:31:10;3.97;;;2.95;;
12151;SDS011;6139;51.274;7.128;2023-11-19T02:32:12;4.53;;;3.00;;
12151;SDS011;6139;51.274;7.128;2023-11-19T02:33:16;3.85;;;3.20;;
12151;SDS011;6139;51.274;7.128;2023-11-19T02:34:16;4.82;;;2.80;;
12151;SDS011;6139;51.274;7.128;2023-11-19T02:35:18;5.82;;;3.22;;
12151;SDS011;6139;51.274;7.128;2023-11-19T02:36:21;4.95;;;2.78;;
12151;SDS011;6139;51.274;7.128;2023-11-19T02:37:23;4.30;;;2.65;;
12151;SDS011;6139;51.274;7.128;2023-11-19T02:38:24;4.35;;;2.80;;
12151;SDS011;6139;51.274;7.128;2023-11-19T02:39:26;7.45;;;3.28;;
12151;SDS011;6139;51.274;7.128;2023-11-19T02:40:28;6.70;;;3.10;;
12151;SDS011;6139;51.274;7.128;2023-11-19T02:41:29;5.40;;;2.95;;
12151;SDS011;6139;51.274;7.128;2023-11-19T02:42:31;9.75;;;2.97;;
12151;SDS011;6139;51.274;7.128;2023-11-19T02:43:34;6.30;;;3.15;;
12151;SDS011;6139;51.274;7.128;2023-11-19T02:44:37;5.65;;;2.70;;
12151;SDS011;6139;51.274;7.128;2023-11-19T02:45:39;6.28;;;3.20;;
12151;SDS011;6139;51.274;7.128;2023-11-19T02:46:42;8.27;;;3.47;;
12151;SDS011;6139;51.274;7.128;2023-11-19T02:47:43;5.47;;;3.03;;
12151;SDS011;6139;51.274;7.128;2023-11-19T02:48:45;7.85;;;3.28;;
12151;SDS011;6139;51.274;7.128;2023-11-19T02:49:46;7.60;;;3.10;;
12151;SDS011;6139;51.274;7.128;2023-11-19T02:50:49;4.40;;;2.97;;
12151;SDS011;6139;51.274;7.128;2023-11-19T02:51:50;6.90;;;3.28;;
12151;SDS011;6139;51.274;7.128;2023-11-19T02:52:53;6.55;;;2.95;;
12151;SDS011;6139;51.274;7.128;2023-11-19T02:53:56;8.02;;;3.40;;
12151;SDS011;6139;51.274;7.128;2023-11-19T02:54:58;5.18;;;2.95;;
12151;SDS011;6139;51.274;7.128;2023-11-19T02:56:00;8.20;;;3.25;;
12151;SDS011;6139;51.274;7.128;2023-11-19T02:57:09;8.50;;;3.10;;
12151;SDS011;6139;51.274;7.128;2023-11-19T02:58:12;4.90;;;2.95;;
12151;SDS011;6139;51.274;7.128;2023-11-19T02:59:21;6.57;;;3.30;;
12151;SDS011;6139;51.274;7.128;2023-11-19T03:00:27;7.13;;;3.53;;
12151;SDS011;6139;51.274;7.128;2023-11-19T03:01:36;6.72;;;3.10;;
12151;SDS011;6139;51.274;7.128;2023-11-19T03:02:39;6.80;;;3.70;;
12151;SDS011;6139;51.274;7.128;2023-11-19T03:03:45;8.63;;;3.55;;
12151;SDS011;6139;51.274;7.128;2023-11-19T03:04:49;6.95;;;3.45;;
12151;SDS011;6139;51.274;7.128;2023-11-19T03:05:51;10.40;;;3.55;;
12151;SDS011;6139;51.274;7.128;2023-11-19T03:06:52;6.18;;;3.65;;
12151;SDS011;6139;51.274;7.128;2023-11-19T03:07:53;7.57;;;3.63;;
12151;SDS011;6139;51.274;7.128;2023-11-19T03:08:55;12.63;;;3.92;;
12151;SDS011;6139;51.274;7.128;2023-11-19T03:09:56;10.43;;;3.55;;
12151;SDS011;6139;51.274;7.128;2023-11-19T03:10:58;9.88;;;3.50;;
12151;SDS011;6139;51.274;7.128;2023-11-19T03:11:59;7.55;;;3.40;;
12151;SDS011;6139;51.274;7.128;2023-11-19T03:13:02;7.35;;;3.22;;
12151;SDS011;6139;51.274;7.128;2023-11-19T03:14:03;6.95;;;3.13;;
12151;SDS011;6139;51.274;7.128;2023-11-19T03:15:07;6.25;;;3.40;;
12151;SDS011;6139;51.274;7.128;2023-11-19T03:16:10;11.23;;;3.45;;
12151;SDS011;6139;51.274;7.128;2023-11-19T03:17:12;8.13;;;3.50;;
12151;SDS011;6139;51.274;7.128;2023-11-19T03:18:13;12.88;;;3.25;;
12151;SDS011;6139;51.274;7.128;2023-11-19T03:19:15;8.82;;;3.63;;
12151;SDS011;6139;51.274;7.128;2023-11-19T03:20:16;9.75;;;4.50;;
12151;SDS011;6139;51.274;7.128;2023-11-19T03:21:17;8.52;;;4.10;;
12151;SDS011;6139;51.274;7.128;2023-11-19T03:22:19;10.52;;;3.85;;
12151;SDS011;6139;51.274;7.128;2023-11-19T03:23:21;7.65;;;3.08;;
12151;SDS011;6139;51.274;7.128;2023-11-19T03:24:23;13.57;;;3.78;;
12151;SDS011;6139;51.274;7.128;2023-11-19T03:25:24;7.55;;;3.53;;
12151;SDS011;6139;51.274;7.128;2023-11-19T03:26:27;9.45;;;4.18;;
12151;SDS011;6139;51.274;7.128;2023-11-19T03:27:28;10.23;;;3.90;;
12151;SDS011;6139;51.274;7.128;2023-11-19T03:28:29;9.93;;;4.05;;
12151;SDS011;6139;51.274;7.128;2023-11-19T03:29:32;9.73;;;3.67;;
12151;SDS011;6139;51.274;7.128;2023-11-19T03:30:34;8.30;;;3.65;;
12151;SDS011;6139;51.274;7.128;2023-11-19T03:31:36;7.85;;;3.50;;
12151;SDS011;6139;51.274;7.128;2023-11-19T03:32:42;11.75;;;3.88;;
12151;SDS011;6139;51.274;7.128;2023-11-19T03:33:44;10.05;;;3.13;;
12151;SDS011;6139;51.274;7.128;2023-11-19T03:34:46;8.68;;;3.90;;
12151;SDS011;6139;51.274;7.128;2023-11-19T03:35:47;10.55;;;3.78;;
12151;SDS011;6139;51.274;7.128;2023-11-19T03:36:49;13.65;;;4.30;;
12151;SDS011;6139;51.274;7.128;2023-11-19T03:37:50;10.23;;;3.58;;
12151;SDS011;6139;51.274;7.128;2023-11-19T03:38:51;13.73;;;4.10;;
12151;SDS011;6139;51.274;7.128;2023-11-19T03:39:53;8.52;;;4.18;;
12151;SDS011;6139;51.274;7.128;2023-11-19T03:40:55;14.80;;;4.32;;
12151;SDS011;6139;51.274;7.128;2023-11-19T03:41:56;13.98;;;4.05;;
12151;SDS011;6139;51.274;7.128;2023-11-19T03:42:58;6.57;;;3.55;;
12151;SDS011;6139;51.274;7.128;2023-11-19T03:43:59;13.55;;;3.92;;
12151;SDS011;6139;51.274;7.128;2023-11-19T03:45:01;12.00;;;5.22;;
12151;SDS011;6139;51.274;7.128;2023-11-19T03:46:05;9.65;;;3.60;;
12151;SDS011;6139;51.274;7.128;2023-11-19T03:47:17;10.55;;;3.67;;
12151;SDS011;6139;51.274;7.128;2023-11-19T03:48:18;11.43;;;3.92;;
12151;SDS011;6139;51.274;7.128;2023-11-19T03:49:20;9.18;;;3.35;;
12151;SDS011;6139;51.274;7.128;2023-11-19T03:50:21;12.40;;;3.80;;
12151;SDS011;6139;51.274;7.128;2023-11-19T03:51:23;16.73;;;4.50;;
12151;SDS011;6139;51.274;7.128;2023-11-19T03:52:24;8.60;;;3.50;;
12151;SDS011;6139;51.274;7.128;2023-11-19T03:53:27;12.43;;;3.75;;
12151;SDS011;6139;51.274;7.128;2023-11-19T03:54:28;11.95;;;3.17;;
12151;SDS011;6139;51.274;7.128;2023-11-19T03:55:30;13.93;;;3.97;;
12151;SDS011;6139;51.274;7.128;2023-11-19T03:56:31;20.38;;;4.07;;
12151;SDS011;6139;51.274;7.128;2023-11-19T03:57:33;12.30;;;3.45;;
12151;SDS011;6139;51.274;7.128;2023-11-19T03:58:34;15.93;;;3.63;;
12151;SDS011;6139;51.274;7.128;2023-11-19T03:59:38;10.38;;;3.80;;
12151;SDS011;6139;51.274;7.128;2023-11-19T04:00:39;14.40;;;3.72;;
12151;SDS011;6139;51.274;7.128;2023-11-19T04:01:43;9.60;;;3.45;;
12151;SDS011;6139;51.274;7.128;2023-11-19T04:02:44;12.52;;;3.50;;
12151;SDS011;6139;51.274;7.128;2023-11-19T04:03:47;16.83;;;3.65;;
12151;SDS011;6139;51.274;7.128;2023-11-19T04:04:49;11.93;;;3.92;;
12151;SDS011;6139;51.274;7.128;2023-11-19T04:05:50;13.65;;;3.83;;
12151;SDS011;6139;51.274;7.128;2023-11-19T04:06:52;15.38;;;4.38;;
12151;SDS011;6139;51.274;7.128;2023-11-19T04:07:53;9.93;;;3.10;;
12151;SDS011;6139;51.274;7.128;2023-11-19T04:08:55;11.88;;;3.95;;
12151;SDS011;6139;51.274;7.128;2023-11-19T04:09:56;10.50;;;3.38;;
12151;SDS011;6139;51.274;7.128;2023-11-19T04:10:59;9.02;;;3.50;;
12151;SDS011;6139;51.274;7.128;2023-11-19T04:12:01;13.23;;;3.30;;
12151;SDS011;6139;51.274;7.128;2023-11-19T04:13:03;12.07;;;3.67;;
12151;SDS011;6139;51.274;7.128;2023-11-19T04:14:04;17.73;;;3.65;;
12151;SDS011;6139;51.274;7.128;2023-11-19T04:15:06;14.82;;;3.90;;
12151;SDS011;6139;51.274;7.128;2023-11-19T04:16:09;13.43;;;3.72;;
12151;SDS011;6139;51.274;7.128;2023-11-19T04:17:11;12.00;;;3.55;;
12151;SDS011;6139;51.274;7.128;2023-11-19T04:18:13;14.63;;;3.72;;
12151;SDS011;6139;51.274;7.128;2023-11-19T04:19:14;13.77;;;3.50;;
12151;SDS011;6139;51.274;7.128;2023-11-19T04:20:16;13.30;;;4.57;;
12151;SDS011;6139;51.274;7.128;2023-11-19T04:21:18;14.38;;;3.30;;
12151;SDS011;6139;51.274;7.128;2023-11-19T04:22:20;14.02;;;4.45;;
12151;SDS011;6139;51.274;7.128;2023-11-19T04:23:21;13.55;;;3.17;;
12151;SDS011;6139;51.274;7.128;2023-11-19T04:24:23;12.38;;;3.20;;
12151;SDS011;6139;51.274;7.128;2023-11-19T04:25:24;11.55;;;3.35;;
12151;SDS011;6139;51.274;7.128;2023-11-19T04:26:26;14.30;;;3.55;;
12151;SDS011;6139;51.274;7.128;2023-11-19T04:27:31;11.52;;;2.90;;
12151;SDS011;6139;51.274;7.128;2023-11-19T04:28:32;10.52;;;3.33;;
12151;SDS011;6139;51.274;7.128;2023-11-19T04:29:34;15.90;;;3.60;;
12151;SDS011;6139;51.274;7.128;2023-11-19T04:30:35;12.27;;;3.20;;
12151;SDS011;6139;51.274;7.128;2023-11-19T04:31:37;16.58;;;3.65;;
12151;SDS011;6139;51.274;7.128;2023-11-19T04:32:39;11.35;;;3.40;;
12151;SDS011;6139;51.274;7.128;2023-11-19T04:33:41;13.88;;;3.47;;
12151;SDS011;6139;51.274;7.128;2023-11-19T04:34:42;17.27;;;3.58;;
12151;SDS011;6139;51.274;7.128;2023-11-19T04:35:44;14.20;;;4.10;;
12151;SDS011;6139;51.274;7.128;2023-11-19T04:36:45;10.55;;;3.47;;
12151;SDS011;6139;51.274;7.128;2023-11-19T04:37:47;16.02;;;3.90;;
12151;SDS011;6139;51.274;7.128;2023-11-19T04:38:49;13.63;;;3.95;;
12151;SDS011;6139;51.274;7.128;2023-11-19T04:39:50;15.32;;;3.53;;
12151;SDS011;6139;51.274;7.128;2023-11-19T04:40:52;16.00;;;4.00;;
12151;SDS011;6139;51.274;7.128;2023-11-19T04:41:53;17.85;;;3.72;;
12151;SDS011;6139;51.274;7.128;2023-11-19T04:42:55;17.60;;;3.88;;
12151;SDS011;6139;51.274;7.128;2023-11-19T04:43:56;17.67;;;4.10;;
12151;SDS011;6139;51.274;7.128;2023-11-19T04:44:57;20.23;;;3.88;;
12151;SDS011;6139;51.274;7.128;2023-11-19T04:45:59;12.00;;;3.65;;
12151;SDS011;6139;51.274;7.128;2023-11-19T04:47:00;16.75;;;4.07;;
12151;SDS011;6139;51.274;7.128;2023-11-19T04:48:03;11.25;;;3.53;;
12151;SDS011;6139;51.274;7.128;2023-11-19T04:49:04;11.75;;;3.63;;
12151;SDS011;6139;51.274;7.128;2023-11-19T04:50:06;12.80;;;3.40;;
12151;SDS011;6139;51.274;7.128;2023-11-19T04:51:10;14.68;;;3.90;;
12151;SDS011;6139;51.274;7.128;2023-11-19T04:52:12;12.07;;;3.35;;
12151;SDS011;6139;51.274;7.128;2023-11-19T04:53:13;21.20;;;3.70;;
12151;SDS011;6139;51.274;7.128;2023-11-19T04:54:16;18.00;;;3.97;;
12151;SDS011;6139;51.274;7.128;2023-11-19T04:55:17;7.32;;;3.15;;
12151;SDS011;6139;51.274;7.128;2023-11-19T04:56:19;13.52;;;3.72;;
12151;SDS011;6139;51.274;7.128;2023-11-19T04:57:20;21.05;;;4.35;;
12151;SDS011;6139;51.274;7.128;2023-11-19T04:58:21;13.75;;;4.22;;
12151;SDS011;6139;51.274;7.128;2023-11-19T04:59:23;13.55;;;3.63;;
12151;SDS011;6139;51.274;7.128;2023-11-19T05:00:24;15.02;;;3.88;;
12151;SDS011;6139;51.274;7.128;2023-11-19T05:01:26;17.88;;;3.88;;
12151;SDS011;6139;51.274;7.128;2023-11-19T05:02:27;17.38;;;3.80;;
12151;SDS011;6139;51.274;7.128;2023-11-19T05:03:31;16.58;;;3.30;;
12151;SDS011;6139;51.274;7.128;2023-11-19T05:04:32;16.23;;;4.03;;
12151;SDS011;6139;51.274;7.128;2023-11-19T05:05:34;12.32;;;3.75;;
12151;SDS011;6139;51.274;7.128;2023-11-19T05:06:35;17.00;;;3.60;;
12151;SDS011;6139;51.274;7.128;2023-11-19T05:07:38;20.20;;;3.95;;
12151;SDS011;6139;51.274;7.128;2023-11-19T05:08:39;15.32;;;4.20;;
12151;SDS011;6139;51.274;7.128;2023-11-19T05:09:39;14.65;;;3.92;;
12151;SDS011;6139;51.274;7.128;2023-11-19T05:10:43;8.60;;;3.42;;
12151;SDS011;6139;51.274;7.128;2023-11-19T05:11:44;20.05;;;4.78;;
12151;SDS011;6139;51.274;7.128;2023-11-19T05:12:46;11.63;;;3.35;;
12151;SDS011;6139;51.274;7.128;2023-11-19T05:13:47;13.57;;;3.90;;
12151;SDS011;6139;51.274;7.128;2023-11-19T05:14:49;16.52;;;3.80;;
12151;SDS011;6139;51.274;7.128;2023-11-19T05:15:51;18.20;;;3.75;;
12151;SDS011;6139;51.274;7.128;2023-11-19T05:16:53;17.45;;;4.18;;
12151;SDS011;6139;51.274;7.128;2023-11-19T05:17:54;17.88;;;4.40;;
12151;SDS011;6139;51.274;7.128;2023-11-19T05:18:57;15.70;;;4.22;;
12151;SDS011;6139;51.274;7.128;2023-11-19T05:19:58;18.85;;;3.67;;
12151;SDS011;6139;51.274;7.128;2023-11-19T05:21:00;11.23;;;3.40;;
12151;SDS011;6139;51.274;7.128;2023-11-19T05:22:01;15.88;;;3.33;;
12151;SDS011;6139;51.274;7.128;2023-11-19T05:23:03;17.60;;;4.30;;
12151;SDS011;6139;51.274;7.128;2023-11-19T05:24:04;15.32;;;4.35;;
12151;SDS011;6139;51.274;7.128;2023-11-19T05:25:07;11.60;;;4.20;;
12151;SDS011;6139;51.274;7.128;2023-11-19T05:26:09;18.55;;;3.53;;
12151;SDS011;6139;51.274;7.128;2023-11-19T05:27:11;16.08;;;3.67;;
12151;SDS011;6139;51.274;7.128;2023-11-19T05:28:13;12.10;;;3.70;;
12151;SDS011;6139;51.274;7.128;2023-11-19T05:29:15;16.42;;;3.85;;
12151;SDS011;6139;51.274;7.128;2023-11-19T05:30:16;19.35;;;3.70;;
12151;SDS011;6139;51.274;7.128;2023-11-19T05:31:18;14.55;;;3.90;;
12151;SDS011;6139;51.274;7.128;2023-11-19T05:32:19;18.75;;;4.32;;
12151;SDS011;6139;51.274;7.128;2023-11-19T05:33:21;15.40;;;4.35;;
12151;SDS011;6139;51.274;7.128;2023-11-19T05:34:24;12.82;;;3.78;;
12151;SDS011;6139;51.274;7.128;2023-11-19T05:35:26;12.63;;;3.88;;
12151;SDS011;6139;51.274;7.128;2023-11-19T05:36:27;14.52;;;3.45;;
12151;SDS011;6139;51.274;7.128;2023-11-19T05:37:29;16.52;;;4.10;;
12151;SDS011;6139;51.274;7.128;2023-11-19T05:38:30;13.95;;;3.30;;
12151;SDS011;6139;51.274;7.128;2023-11-19T05:39:32;12.35;;;3.45;;
12151;SDS011;6139;51.274;7.128;2023-11-19T05:40:33;15.07;;;3.40;;
12151;SDS011;6139;51.274;7.128;2023-11-19T05:41:35;29.80;;;4.63;;
12151;SDS011;6139;51.274;7.128;2023-11-19T05:42:37;13.10;;;3.65;;
12151;SDS011;6139;51.274;7.128;2023-11-19T05:43:39;15.50;;;3.95;;
12151;SDS011;6139;51.274;7.128;2023-11-19T05:44:40;15.13;;;3.38;;
12151;SDS011;6139;51.274;7.128;2023-11-19T05:45:43;12.27;;;4.18;;
12151;SDS011;6139;51.274;7.128;2023-11-19T05:46:43;19.95;;;4.18;;
12151;SDS011;6139;51.274;7.128;2023-11-19T05:47:46;20.40;;;4.85;;
12151;SDS011;6139;51.274;7.128;2023-11-19T05:48:47;16.35;;;3.55;;
12151;SDS011;6139;51.274;7.128;2023-11-19T05:49:50;11.10;;;3.60;;
12151;SDS011;6139;51.274;7.128;2023-11-19T05:50:51;12.38;;;3.72;;
12151;SDS011;6139;51.274;7.128;2023-11-19T05:51:53;16.08;;;3.60;;
12151;SDS011;6139;51.274;7.128;2023-11-19T05:52:56;16.63;;;3.70;;
12151;SDS011;6139;51.274;7.128;2023-11-19T05:53:58;13.60;;;3.47;;
12151;SDS011;6139;51.274;7.128;2023-11-19T05:54:59;17.23;;;3.90;;
12151;SDS011;6139;51.274;7.128;2023-11-19T05:56:04;12.55;;;3.35;;
12151;SDS011;6139;51.274;7.128;2023-11-19T05:57:08;11.43;;;3.83;;
12151;SDS011;6139;51.274;7.128;2023-11-19T05:58:10;20.02;;;4.32;;
12151;SDS011;6139;51.274;7.128;2023-11-19T05:59:12;15.43;;;3.80;;
12151;SDS011;6139;51.274;7.128;2023-11-19T06:00:17;15.27;;;4.28;;
12151;SDS011;6139;51.274;7.128;2023-11-19T06:01:18;17.52;;;4.35;;
12151;SDS011;6139;51.274;7.128;2023-11-19T06:02:19;17.63;;;3.92;;
12151;SDS011;6139;51.274;7.128;2023-11-19T06:03:22;16.40;;;3.80;;
12151;SDS011;6139;51.274;7.128;2023-11-19T06:04:23;15.65;;;3.92;;
12151;SDS011;6139;51.274;7.128;2023-11-19T06:05:26;15.85;;;3.83;;
12151;SDS011;6139;51.274;7.128;2023-11-19T06:06:27;12.07;;;3.50;;
12151;SDS011;6139;51.274;7.128;2023-11-19T06:07:29;12.48;;;3.33;;
12151;SDS011;6139;51.274;7.128;2023-11-19T06:08:30;16.02;;;3.65;;
12151;SDS011;6139;51.274;7.128;2023-11-19T06:09:32;12.02;;;3.67;;
12151;SDS011;6139;51.274;7.128;2023-11-19T06:10:34;15.35;;;3.70;;
12151;SDS011;6139;51.274;7.128;2023-11-19T06:11:36;12.38;;;3.50;;
12151;SDS011;6139;51.274;7.128;2023-11-19T06:12:37;17.23;;;3.55;;
12151;SDS011;6139;51.274;7.128;2023-11-19T06:13:41;16.02;;;4.00;;
12151;SDS011;6139;51.274;7.128;2023-11-19T06:14:43;16.70;;;3.72;;
12151;SDS011;6139;51.274;7.128;2023-11-19T06:15:45;12.80;;;3.70;;
12151;SDS011;6139;51.274;7.128;2023-11-19T06:16:46;19.00;;;4.32;;
12151;SDS011;6139;51.274;7.128;2023-11-19T06:17:48;12.18;;;3.70;;
12151;SDS011;6139;51.274;7.128;2023-11-19T06:18:49;11.23;;;3.38;;